Details From EGKK - London Gatwick
To MUHA - La Havane Jose Marti Intl
Flight Number -
Tags Generated
Created
Modified
Stats Distance 4,056 nm / 7,511 km
Max Altitude 0 ft / 0 m
Waypoints 6
Social Downloads 1
Likes 0
Share VATSIM

Download

Looking for another format? Having issues loading an existing format? Contact us
Advertisement - Login to hide

Notes

Generated

Route

EGKK STU57 SUMRS DEKAL UHA00 MUHA

ID Type Via Altitude Latitude Longitude Leg Dist Tot Dist Heading (true) Name
O EGKK APT - 0 ft / 0 m 51.14691˚ -0.21257˚ - 0 nm - -
STU57 FIX - 0 ft / 0 m 51.55167˚ -6.40750˚ 233 nm 233 nm 278° / 274° -
SUMRS FIX - 0 ft / 0 m 28.71169˚ -76.55850˚ 3354 nm 3587 nm 275° / 225° -
DEKAL FIX - 0 ft / 0 m 25.85056˚ -79.63136˚ 237 nm 3825 nm 224° / 223° -
UHA00 FIX - 0 ft / 0 m 22.97888˚ -82.42504˚ 230 nm 4055 nm 222° / 221° -
O MUHA APT - 0 ft / 0 m 22.97863˚ -82.42494˚ 0 nm 4055 nm 160° / 160° -

Altitude Profile

Advertisement - Login to hide

Weather


0- 5 10 15 20 25 30 35+ Temperature / ° C

Clouds and Precipitation
Forecast for 2018-05-27 00:00 UTC. Updated 3 hours ago

Ground ~20,000 ft ~40,000 ft Winds

EGKK

Details ICAO EGKK (LGW)
Name London Gatwick
Region United Kingdom
Timezone Europe/London (UTC+1.0)
Stats Elevation 196 ft / 60 m (AMSL)
Location 51.148753° -0.192472°
Runways 2
Magnetic Variation 0.367° W

METAR

EGKK 270220Z 04006KT 9000 NSC 16/15 Q1015

Decode

TAF

TAF EGKK 262258Z 2700/2806 06012KT 9999 FEW025 PROB40 TEMPO 2700/2711 07015G25KT 4000 +TSRA TSGS BKN014 BKN040CB BECMG 2701/2704 12008KT TEMPO 2711/2722 4000 TSRA BKN014 BKN040CB PROB40 TEMPO 2714/2722 +TSGR PROB40 2800/2806 4000 BR BKN008

Decode

Departure Runways

ID Width Length Bearing (true) Bearing (mag) Surface Threshold Offset Overrun Length
08L 148 ft / 45 m 8,377 ft / 2,553 m 77.69° 78.06° Asphalt 1,053 ft / 321 m 0 ft / 0 m
08R 148 ft / 45 m 10,341 ft / 3,152 m 77.59° 77.96° Asphalt 1,289 ft / 393 m 0 ft / 0 m
26L 148 ft / 45 m 10,341 ft / 3,152 m 257.63° 258.00° Asphalt 879 ft / 268 m 600 ft / 183 m
26R 148 ft / 45 m 8,377 ft / 2,553 m 257.71° 258.08° Asphalt 1,365 ft / 416 m 0 ft / 0 m

MUHA

Details ICAO MUHA (HAV)
Name Havana Jose Marti Intl
Region Cuba
Timezone America/Havana (UTC-4.0)
Stats Elevation 209 ft / 64 m (AMSL)
Location 22.989154° -82.409086°
Runways 1
Magnetic Variation 4.960° W

METAR

MUHA 270155Z 16010KT 8000 SCT008 OVC046 24/23 Q1006

Decode

TAF

Not found

Destination Runways

ID Width Length Bearing (true) Bearing (mag) Surface Threshold Offset Overrun Length
06 148 ft / 45 m 13,133 ft / 4,003 m 54.21° 59.17° Asphalt 0 ft / 0 m 476 ft / 145 m
24 148 ft / 45 m 13,133 ft / 4,003 m 234.23° 239.19° Asphalt 0 ft / 0 m 197 ft / 60 m

Approach Navaids

Runway Type Ident Frequency Range Bearing (true) Bearing (mag) Slope Elevation
06 Localiser IHA 110.50 MHz 18 nm / 33 km 54.23° 59.19° - 209 ft / 64 m (AMSL)
06 Glidescope IHA 110.50 MHz 10 nm / 19 km 54.22° 59.18° 3.00° 209 ft / 64 m (AMSL)

Popular Alternatives